首页
METAR-TAF:

METAR-TAF

机场 :

华沙肖邦机场

华沙, 波兰

纬度: 52-10N, 经度: 020-58E, 海拔: 106米

当前天气观测

该预报发布于21分钟前的07:30 UTC
风速18节,风向东转东南
温度 7°C
湿度 93%
气压 1019 hPa
能见度10公里或以上
多云层高于900英尺

METAR: EPWA 210730Z 11018KT 9999 BKN009 07/06 Q1019 NOSIG

时间: 08:51 (07:51 UTC)

预报

该预报发布于2小时和21分钟前的05:30 UTC
预报有效从21日的 06点(UTC)到 22日的 06点(UTC)
风速16节,风向
能见度10公里或以上
多云层高于1000英尺
短暂存在
从 21日的 06点(UTC)到 21日的 21点(UTC)
风速20节,风向东转东南,有时为31节阵风
成为
从 21日的 08点(UTC)到 21日的 11点(UTC)
多云层高于1600英尺
几率 40% :
短暂存在
从 21日的 16点(UTC)到 21日的 24点(UTC)
多云层高于1400英尺
成为
从 22日的 00点(UTC)到 22日的 03点(UTC)
多云层高于1200英尺

TAF: EPWA 210530Z 2106/2206 10016KT 9999 BKN010 TEMPO 2106/2121 11020G31KT BECMG 2108/2111 BKN016 PROB40 TEMPO 2116/2124 RA BKN014 BECMG 2200/2203 BKN012

超过4000个机场的气象观测和天气预报(METAR&TAF报告)。

可查询的气象台以黄色和红色小点在地图上表示。

将鼠标移到小点上方,可查看气象台名称。

然后点击查看天气观测和预报。

如需切换地图:点击带黑十字的绿色按钮放大地图;点击带横线的绿色按钮缩小地图;或者点击绿色箭头查看邻近地区的地图。


METAR-TAF: